sensor_id;sensor_type;location;lat;lon;timestamp;temperature;humidity
45315;SHT31;31051;51.540;5.852;2023-07-24T00:12:31;17.4;91.6
45315;SHT31;31051;51.540;5.852;2023-07-24T00:25:30;17.4;92.0
45315;SHT31;31051;51.540;5.852;2023-07-24T00:38:18;17.3;92.0
45315;SHT31;31051;51.540;5.852;2023-07-24T00:51:06;17.3;92.2
45315;SHT31;31051;51.540;5.852;2023-07-24T01:03:55;17.3;92.1
45315;SHT31;31051;51.540;5.852;2023-07-24T01:16:43;17.4;92.3
45315;SHT31;31051;51.540;5.852;2023-07-24T01:29:31;17.5;92.2
45315;SHT31;31051;51.540;5.852;2023-07-24T01:42:21;17.5;92.2
45315;SHT31;31051;51.540;5.852;2023-07-24T01:55:19;17.6;92.3
45315;SHT31;31051;51.540;5.852;2023-07-24T02:08:07;17.6;92.3
45315;SHT31;31051;51.540;5.852;2023-07-24T02:20:56;17.6;92.2
45315;SHT31;31051;51.540;5.852;2023-07-24T02:33:44;17.6;92.4
45315;SHT31;31051;51.540;5.852;2023-07-24T02:46:33;17.6;92.2
45315;SHT31;31051;51.540;5.852;2023-07-24T02:59:33;17.6;92.3
45315;SHT31;31051;51.540;5.852;2023-07-24T03:12:32;17.6;92.6
45315;SHT31;31051;51.540;5.852;2023-07-24T03:25:31;17.4;92.6
45315;SHT31;31051;51.540;5.852;2023-07-24T03:38:31;17.0;92.3
45315;SHT31;31051;51.540;5.852;2023-07-24T03:51:30;16.9;91.9
45315;SHT31;31051;51.540;5.852;2023-07-24T04:04:29;17.0;92.2
45315;SHT31;31051;51.540;5.852;2023-07-24T04:17:29;17.0;92.3
45315;SHT31;31051;51.540;5.852;2023-07-24T04:30:28;16.6;90.6
45315;SHT31;31051;51.540;5.852;2023-07-24T04:43:28;16.5;90.7
45315;SHT31;31051;51.540;5.852;2023-07-24T04:56:27;16.4;91.2
45315;SHT31;31051;51.540;5.852;2023-07-24T05:09:25;16.4;91.9
45315;SHT31;31051;51.540;5.852;2023-07-24T05:22:15;16.3;92.0
45315;SHT31;31051;51.540;5.852;2023-07-24T05:48:14;16.4;92.2
45315;SHT31;31051;51.540;5.852;2023-07-24T06:01:13;16.5;92.5
45315;SHT31;31051;51.540;5.852;2023-07-24T06:14:12;16.4;92.3
45315;SHT31;31051;51.540;5.852;2023-07-24T06:27:12;16.5;92.3
45315;SHT31;31051;51.540;5.852;2023-07-24T06:40:11;16.7;92.0
45315;SHT31;31051;51.540;5.852;2023-07-24T06:53:10;16.8;90.9
45315;SHT31;31051;51.540;5.852;2023-07-24T07:06:10;17.1;88.8
45315;SHT31;31051;51.540;5.852;2023-07-24T07:19:09;17.3;89.2
45315;SHT31;31051;51.540;5.852;2023-07-24T07:32:08;17.4;89.1
45315;SHT31;31051;51.540;5.852;2023-07-24T07:45:08;17.5;88.0
45315;SHT31;31051;51.540;5.852;2023-07-24T07:58:07;17.6;87.6
45315;SHT31;31051;51.540;5.852;2023-07-24T08:11:06;18.3;85.6
45315;SHT31;31051;51.540;5.852;2023-07-24T08:23:55;18.4;84.9
45315;SHT31;31051;51.540;5.852;2023-07-24T08:36:54;19.4;80.7
45315;SHT31;31051;51.540;5.852;2023-07-24T08:49:54;19.2;81.3
45315;SHT31;31051;51.540;5.852;2023-07-24T09:02:53;19.1;79.5
45315;SHT31;31051;51.540;5.852;2023-07-24T09:15:53;19.4;77.1
45315;SHT31;31051;51.540;5.852;2023-07-24T09:28:52;19.5;78.9
45315;SHT31;31051;51.540;5.852;2023-07-24T09:41:51;20.2;79.1
45315;SHT31;31051;51.540;5.852;2023-07-24T09:54:50;20.6;73.7
45315;SHT31;31051;51.540;5.852;2023-07-24T10:07:39;19.7;76.0
45315;SHT31;31051;51.540;5.852;2023-07-24T10:20:38;19.1;77.2
45315;SHT31;31051;51.540;5.852;2023-07-24T10:33:27;18.8;79.4
45315;SHT31;31051;51.540;5.852;2023-07-24T10:46:26;18.7;80.7
45315;SHT31;31051;51.540;5.852;2023-07-24T10:59:25;18.5;81.2
45315;SHT31;31051;51.540;5.852;2023-07-24T11:12:13;18.3;83.2
45315;SHT31;31051;51.540;5.852;2023-07-24T11:25:01;18.7;83.0
45315;SHT31;31051;51.540;5.852;2023-07-24T11:37:51;19.6;81.2
45315;SHT31;31051;51.540;5.852;2023-07-24T11:50:50;19.9;79.0
45315;SHT31;31051;51.540;5.852;2023-07-24T12:03:50;19.6;75.1
45315;SHT31;31051;51.540;5.852;2023-07-24T12:16:48;19.3;78.9
45315;SHT31;31051;51.540;5.852;2023-07-24T12:29:37;19.3;79.9
45315;SHT31;31051;51.540;5.852;2023-07-24T12:42:37;19.6;79.4
45315;SHT31;31051;51.540;5.852;2023-07-24T12:55:36;19.7;77.1
45315;SHT31;31051;51.540;5.852;2023-07-24T13:08:35;20.2;78.0
45315;SHT31;31051;51.540;5.852;2023-07-24T13:21:24;19.6;76.8
45315;SHT31;31051;51.540;5.852;2023-07-24T13:34:23;19.5;81.8
45315;SHT31;31051;51.540;5.852;2023-07-24T13:47:12;19.7;77.2
45315;SHT31;31051;51.540;5.852;2023-07-24T14:00:10;20.4;76.2
45315;SHT31;31051;51.540;5.852;2023-07-24T14:13:00;19.8;76.5
45315;SHT31;31051;51.540;5.852;2023-07-24T14:25:58;19.7;76.2
45315;SHT31;31051;51.540;5.852;2023-07-24T14:38:47;18.1;75.9
45315;SHT31;31051;51.540;5.852;2023-07-24T14:51:47;16.5;86.2
45315;SHT31;31051;51.540;5.852;2023-07-24T15:04:45;16.9;88.2
45315;SHT31;31051;51.540;5.852;2023-07-24T15:17:34;17.6;85.6
45315;SHT31;31051;51.540;5.852;2023-07-24T15:30:34;18.4;85.1
45315;SHT31;31051;51.540;5.852;2023-07-24T15:43:32;18.7;81.5
45315;SHT31;31051;51.540;5.852;2023-07-24T15:56:21;18.7;82.2
45315;SHT31;31051;51.540;5.852;2023-07-24T16:09:21;18.9;79.6
45315;SHT31;31051;51.540;5.852;2023-07-24T16:22:20;17.6;79.7
45315;SHT31;31051;51.540;5.852;2023-07-24T16:35:19;17.1;82.2
45315;SHT31;31051;51.540;5.852;2023-07-24T16:48:08;17.2;85.8
45315;SHT31;31051;51.540;5.852;2023-07-24T17:01:07;17.5;88.9
45315;SHT31;31051;51.540;5.852;2023-07-24T17:14:06;17.9;87.6
45315;SHT31;31051;51.540;5.852;2023-07-24T17:26:55;18.2;86.8
45315;SHT31;31051;51.540;5.852;2023-07-24T17:39:53;18.0;87.2
45315;SHT31;31051;51.540;5.852;2023-07-24T17:52:43;17.9;82.9
45315;SHT31;31051;51.540;5.852;2023-07-24T18:05:42;17.7;81.8
45315;SHT31;31051;51.540;5.852;2023-07-24T18:18:42;17.5;82.6
45315;SHT31;31051;51.540;5.852;2023-07-24T18:31:41;17.3;82.1
45315;SHT31;31051;51.540;5.852;2023-07-24T18:44:40;17.3;81.8
45315;SHT31;31051;51.540;5.852;2023-07-24T18:57:40;16.9;81.7
45315;SHT31;31051;51.540;5.852;2023-07-24T19:10:39;16.6;81.8
45315;SHT31;31051;51.540;5.852;2023-07-24T19:36:38;16.4;82.8
45315;SHT31;31051;51.540;5.852;2023-07-24T19:49:37;16.1;81.4
45315;SHT31;31051;51.540;5.852;2023-07-24T20:02:37;16.1;81.4
45315;SHT31;31051;51.540;5.852;2023-07-24T20:15:36;16.0;81.6
45315;SHT31;31051;51.540;5.852;2023-07-24T20:28:35;15.7;83.6
45315;SHT31;31051;51.540;5.852;2023-07-24T20:41:35;15.7;84.2
45315;SHT31;31051;51.540;5.852;2023-07-24T20:54:34;15.6;84.8
45315;SHT31;31051;51.540;5.852;2023-07-24T21:07:33;15.5;85.2
45315;SHT31;31051;51.540;5.852;2023-07-24T21:20:33;15.5;85.1
45315;SHT31;31051;51.540;5.852;2023-07-24T21:33:32;15.4;84.7
45315;SHT31;31051;51.540;5.852;2023-07-24T21:46:31;15.3;85.0
45315;SHT31;31051;51.540;5.852;2023-07-24T21:59:31;15.2;84.8
45315;SHT31;31051;51.540;5.852;2023-07-24T22:12:30;15.1;84.7
45315;SHT31;31051;51.540;5.852;2023-07-24T22:25:30;15.0;84.9
45315;SHT31;31051;51.540;5.852;2023-07-24T22:38:29;14.8;85.5
45315;SHT31;31051;51.540;5.852;2023-07-24T22:51:28;14.4;85.4
45315;SHT31;31051;51.540;5.852;2023-07-24T23:04:28;14.0;85.0
45315;SHT31;31051;51.540;5.852;2023-07-24T23:17:27;13.7;86.2
45315;SHT31;31051;51.540;5.852;2023-07-24T23:30:26;13.5;87.3
45315;SHT31;31051;51.540;5.852;2023-07-24T23:43:26;13.3;86.8
45315;SHT31;31051;51.540;5.852;2023-07-24T23:56:25;13.1;85.8
